sensor_id;sensor_type;location;lat;lon;timestamp;P1;durP1;ratioP1;P2;durP2;ratioP2
62121;SDS011;48108;47.532;19.084;2023-03-02T04:47:29;24.35;;;10.60;;
62121;SDS011;48108;47.532;19.084;2023-03-02T04:50:33;20.75;;;11.00;;
62121;SDS011;48108;47.532;19.084;2023-03-02T04:53:35;20.77;;;10.00;;
62121;SDS011;48108;47.532;19.084;2023-03-02T04:56:38;22.10;;;10.63;;
62121;SDS011;48108;47.532;19.084;2023-03-02T04:59:41;21.27;;;10.52;;
62121;SDS011;48108;47.532;19.084;2023-03-02T05:02:44;21.75;;;11.32;;
62121;SDS011;48108;47.532;19.084;2023-03-02T05:05:47;25.23;;;11.12;;
62121;SDS011;48108;47.532;19.084;2023-03-02T05:08:51;19.77;;;10.95;;
62121;SDS011;48108;47.532;19.084;2023-03-02T05:11:56;23.30;;;10.90;;
62121;SDS011;48108;47.532;19.084;2023-03-02T05:15:00;20.37;;;10.00;;
62121;SDS011;48108;47.532;19.084;2023-03-02T05:18:04;23.40;;;11.45;;
62121;SDS011;48108;47.532;19.084;2023-03-02T05:21:09;23.35;;;11.00;;
62121;SDS011;48108;47.532;19.084;2023-03-02T05:24:12;25.42;;;11.20;;
62121;SDS011;48108;47.532;19.084;2023-03-02T05:27:15;23.10;;;10.05;;
62121;SDS011;48108;47.532;19.084;2023-03-02T05:30:19;20.77;;;11.12;;
62121;SDS011;48108;47.532;19.084;2023-03-02T05:33:25;26.52;;;12.50;;
62121;SDS011;48108;47.532;19.084;2023-03-02T05:36:29;23.92;;;10.98;;
62121;SDS011;48108;47.532;19.084;2023-03-02T05:39:35;20.10;;;10.13;;
62121;SDS011;48108;47.532;19.084;2023-03-02T05:42:39;23.05;;;11.02;;
62121;SDS011;48108;47.532;19.084;2023-03-02T05:45:42;22.92;;;10.55;;
62121;SDS011;48108;47.532;19.084;2023-03-02T05:48:46;23.90;;;10.80;;
62121;SDS011;48108;47.532;19.084;2023-03-02T05:51:49;22.92;;;11.40;;
62121;SDS011;48108;47.532;19.084;2023-03-02T05:54:52;20.60;;;10.60;;
62121;SDS011;48108;47.532;19.084;2023-03-02T05:57:55;25.67;;;11.00;;
62121;SDS011;48108;47.532;19.084;2023-03-02T06:00:58;22.58;;;11.30;;
62121;SDS011;48108;47.532;19.084;2023-03-02T06:04:02;27.40;;;12.85;;
62121;SDS011;48108;47.532;19.084;2023-03-02T06:07:04;23.10;;;11.25;;
62121;SDS011;48108;47.532;19.084;2023-03-02T06:10:08;23.98;;;11.23;;
62121;SDS011;48108;47.532;19.084;2023-03-02T06:13:18;23.45;;;11.82;;
62121;SDS011;48108;47.532;19.084;2023-03-02T06:16:21;26.08;;;11.43;;
62121;SDS011;48108;47.532;19.084;2023-03-02T06:19:24;24.80;;;11.77;;
62121;SDS011;48108;47.532;19.084;2023-03-02T06:22:27;21.83;;;11.73;;
62121;SDS011;48108;47.532;19.084;2023-03-02T06:25:30;24.33;;;12.40;;
62121;SDS011;48108;47.532;19.084;2023-03-02T06:28:33;21.87;;;11.18;;
62121;SDS011;48108;47.532;19.084;2023-03-02T06:31:53;21.92;;;11.45;;
62121;SDS011;48108;47.532;19.084;2023-03-02T06:34:56;21.30;;;10.82;;
62121;SDS011;48108;47.532;19.084;2023-03-02T06:37:58;22.80;;;11.65;;
62121;SDS011;48108;47.532;19.084;2023-03-02T06:41:02;22.17;;;11.23;;
62121;SDS011;48108;47.532;19.084;2023-03-02T06:44:05;24.33;;;10.93;;
62121;SDS011;48108;47.532;19.084;2023-03-02T06:47:08;26.08;;;11.55;;
62121;SDS011;48108;47.532;19.084;2023-03-02T06:50:11;23.75;;;11.35;;
62121;SDS011;48108;47.532;19.084;2023-03-02T06:53:15;20.23;;;10.85;;
62121;SDS011;48108;47.532;19.084;2023-03-02T06:56:19;20.33;;;10.23;;
62121;SDS011;48108;47.532;19.084;2023-03-02T06:59:22;20.25;;;10.50;;
62121;SDS011;48108;47.532;19.084;2023-03-02T07:02:25;19.48;;;9.93;;
62121;SDS011;48108;47.532;19.084;2023-03-02T07:05:28;18.08;;;9.80;;
62121;SDS011;48108;47.532;19.084;2023-03-02T07:08:33;20.27;;;10.05;;
62121;SDS011;48108;47.532;19.084;2023-03-02T07:11:37;18.08;;;9.73;;
62121;SDS011;48108;47.532;19.084;2023-03-02T07:14:41;18.08;;;10.75;;
62121;SDS011;48108;47.532;19.084;2023-03-02T07:17:44;17.20;;;9.63;;
62121;SDS011;48108;47.532;19.084;2023-03-02T07:20:49;16.60;;;9.38;;
62121;SDS011;48108;47.532;19.084;2023-03-02T07:23:52;20.83;;;9.57;;
62121;SDS011;48108;47.532;19.084;2023-03-02T07:26:54;19.87;;;9.68;;
62121;SDS011;48108;47.532;19.084;2023-03-02T07:29:57;19.70;;;10.00;;
62121;SDS011;48108;47.532;19.084;2023-03-02T07:33:00;17.62;;;10.05;;
62121;SDS011;48108;47.532;19.084;2023-03-02T07:36:04;18.77;;;9.25;;
62121;SDS011;48108;47.532;19.084;2023-03-02T07:39:08;18.12;;;9.88;;
62121;SDS011;48108;47.532;19.084;2023-03-02T07:42:11;22.02;;;9.85;;
62121;SDS011;48108;47.532;19.084;2023-03-02T07:45:14;16.12;;;9.30;;
62121;SDS011;48108;47.532;19.084;2023-03-02T07:48:18;20.52;;;9.25;;
62121;SDS011;48108;47.532;19.084;2023-03-02T07:51:21;18.92;;;9.45;;
62121;SDS011;48108;47.532;19.084;2023-03-02T07:54:24;19.95;;;9.60;;
62121;SDS011;48108;47.532;19.084;2023-03-02T07:57:29;19.35;;;10.50;;
62121;SDS011;48108;47.532;19.084;2023-03-02T08:00:32;14.82;;;8.48;;
62121;SDS011;48108;47.532;19.084;2023-03-02T08:03:37;14.15;;;7.35;;
62121;SDS011;48108;47.532;19.084;2023-03-02T08:06:40;16.15;;;8.80;;
62121;SDS011;48108;47.532;19.084;2023-03-02T08:09:44;13.35;;;7.90;;
62121;SDS011;48108;47.532;19.084;2023-03-02T08:12:46;14.80;;;7.78;;
62121;SDS011;48108;47.532;19.084;2023-03-02T08:15:57;12.90;;;7.87;;
62121;SDS011;48108;47.532;19.084;2023-03-02T08:19:01;13.90;;;7.22;;
62121;SDS011;48108;47.532;19.084;2023-03-02T08:22:04;12.55;;;7.10;;
62121;SDS011;48108;47.532;19.084;2023-03-02T08:25:06;16.90;;;7.57;;
62121;SDS011;48108;47.532;19.084;2023-03-02T08:28:09;14.40;;;7.72;;
62121;SDS011;48108;47.532;19.084;2023-03-02T08:31:12;14.30;;;7.50;;
62121;SDS011;48108;47.532;19.084;2023-03-02T08:34:17;14.65;;;8.23;;
62121;SDS011;48108;47.532;19.084;2023-03-02T08:37:20;16.85;;;7.72;;
62121;SDS011;48108;47.532;19.084;2023-03-02T08:40:23;14.52;;;8.27;;
62121;SDS011;48108;47.532;19.084;2023-03-02T08:43:26;15.00;;;8.05;;
62121;SDS011;48108;47.532;19.084;2023-03-02T08:46:29;17.02;;;8.45;;
62121;SDS011;48108;47.532;19.084;2023-03-02T08:49:32;12.18;;;7.55;;
62121;SDS011;48108;47.532;19.084;2023-03-02T08:52:35;11.82;;;7.72;;
62121;SDS011;48108;47.532;19.084;2023-03-02T08:55:38;11.82;;;7.62;;
62121;SDS011;48108;47.532;19.084;2023-03-02T08:58:41;14.77;;;8.05;;
62121;SDS011;48108;47.532;19.084;2023-03-02T09:01:45;13.73;;;7.60;;
62121;SDS011;48108;47.532;19.084;2023-03-02T09:04:48;14.73;;;7.82;;
62121;SDS011;48108;47.532;19.084;2023-03-02T09:07:51;16.85;;;8.07;;
62121;SDS011;48108;47.532;19.084;2023-03-02T09:10:55;12.45;;;7.40;;
62121;SDS011;48108;47.532;19.084;2023-03-02T09:13:57;12.65;;;7.68;;
62121;SDS011;48108;47.532;19.084;2023-03-02T09:17:00;18.25;;;7.32;;
62121;SDS011;48108;47.532;19.084;2023-03-02T09:20:03;12.65;;;6.90;;
62121;SDS011;48108;47.532;19.084;2023-03-02T09:23:07;11.43;;;6.82;;
62121;SDS011;48108;47.532;19.084;2023-03-02T09:26:09;12.75;;;7.55;;
62121;SDS011;48108;47.532;19.084;2023-03-02T09:29:12;12.23;;;7.60;;
62121;SDS011;48108;47.532;19.084;2023-03-02T09:32:15;14.85;;;7.78;;
62121;SDS011;48108;47.532;19.084;2023-03-02T09:35:18;10.85;;;7.20;;
62121;SDS011;48108;47.532;19.084;2023-03-02T09:38:21;12.37;;;7.47;;
62121;SDS011;48108;47.532;19.084;2023-03-02T09:41:27;12.73;;;6.78;;
62121;SDS011;48108;47.532;19.084;2023-03-02T09:54:47;10.15;;;6.07;;
62121;SDS011;48108;47.532;19.084;2023-03-02T09:57:49;12.00;;;6.12;;
62121;SDS011;48108;47.532;19.084;2023-03-02T10:00:53;11.80;;;6.50;;
62121;SDS011;48108;47.532;19.084;2023-03-02T10:03:57;10.45;;;6.37;;
62121;SDS011;48108;47.532;19.084;2023-03-02T10:14:46;9.13;;;5.15;;
62121;SDS011;48108;47.532;19.084;2023-03-02T10:24:58;9.45;;;5.05;;
62121;SDS011;48108;47.532;19.084;2023-03-02T10:28:24;12.52;;;5.70;;
62121;SDS011;48108;47.532;19.084;2023-03-02T10:31:33;8.68;;;4.53;;
62121;SDS011;48108;47.532;19.084;2023-03-02T10:34:36;10.35;;;4.85;;
62121;SDS011;48108;47.532;19.084;2023-03-02T10:37:39;9.07;;;5.00;;
62121;SDS011;48108;47.532;19.084;2023-03-02T10:40:48;6.00;;;4.40;;
62121;SDS011;48108;47.532;19.084;2023-03-02T10:44:20;8.90;;;4.82;;
62121;SDS011;48108;47.532;19.084;2023-03-02T10:47:29;8.20;;;5.05;;
62121;SDS011;48108;47.532;19.084;2023-03-02T10:50:34;6.82;;;4.68;;
62121;SDS011;48108;47.532;19.084;2023-03-02T10:53:37;7.68;;;4.75;;
62121;SDS011;48108;47.532;19.084;2023-03-02T10:56:41;6.47;;;5.00;;
62121;SDS011;48108;47.532;19.084;2023-03-02T10:59:45;7.18;;;4.78;;
62121;SDS011;48108;47.532;19.084;2023-03-02T11:05:53;10.13;;;5.30;;
62121;SDS011;48108;47.532;19.084;2023-03-02T11:08:57;11.95;;;6.28;;
62121;SDS011;48108;47.532;19.084;2023-03-02T11:12:12;7.35;;;5.50;;
62121;SDS011;48108;47.532;19.084;2023-03-02T11:21:59;12.18;;;6.30;;
62121;SDS011;48108;47.532;19.084;2023-03-02T11:25:11;7.90;;;5.43;;
62121;SDS011;48108;47.532;19.084;2023-03-02T11:31:55;9.63;;;6.12;;
62121;SDS011;48108;47.532;19.084;2023-03-02T11:38:36;8.75;;;5.87;;
62121;SDS011;48108;47.532;19.084;2023-03-02T11:41:48;8.90;;;5.82;;
62121;SDS011;48108;47.532;19.084;2023-03-02T11:44:51;10.32;;;6.20;;
62121;SDS011;48108;47.532;19.084;2023-03-02T11:51:45;9.65;;;6.12;;
62121;SDS011;48108;47.532;19.084;2023-03-02T11:54:59;8.52;;;6.00;;
62121;SDS011;48108;47.532;19.084;2023-03-02T11:58:10;11.60;;;6.05;;
62121;SDS011;48108;47.532;19.084;2023-03-02T12:01:24;8.18;;;5.68;;
62121;SDS011;48108;47.532;19.084;2023-03-02T12:04:33;9.18;;;5.57;;
62121;SDS011;48108;47.532;19.084;2023-03-02T12:07:38;7.90;;;5.43;;
62121;SDS011;48108;47.532;19.084;2023-03-02T12:10:43;7.70;;;4.87;;
62121;SDS011;48108;47.532;19.084;2023-03-02T12:14:24;6.95;;;4.53;;
62121;SDS011;48108;47.532;19.084;2023-03-02T12:17:32;7.10;;;4.93;;
62121;SDS011;48108;47.532;19.084;2023-03-02T12:20:37;8.40;;;4.87;;
62121;SDS011;48108;47.532;19.084;2023-03-02T12:26:45;6.68;;;4.57;;
62121;SDS011;48108;47.532;19.084;2023-03-02T12:29:49;10.40;;;4.78;;
62121;SDS011;48108;47.532;19.084;2023-03-02T12:33:17;6.95;;;4.25;;
62121;SDS011;48108;47.532;19.084;2023-03-02T12:36:34;6.25;;;4.03;;
62121;SDS011;48108;47.532;19.084;2023-03-02T12:46:34;5.87;;;4.10;;
62121;SDS011;48108;47.532;19.084;2023-03-02T12:53:28;5.10;;;3.55;;
62121;SDS011;48108;47.532;19.084;2023-03-02T12:56:32;4.53;;;3.70;;
62121;SDS011;48108;47.532;19.084;2023-03-02T12:59:35;14.85;;;4.37;;
62121;SDS011;48108;47.532;19.084;2023-03-02T13:02:43;7.62;;;4.47;;
62121;SDS011;48108;47.532;19.084;2023-03-02T13:05:49;9.63;;;4.00;;
62121;SDS011;48108;47.532;19.084;2023-03-02T13:08:53;5.85;;;3.90;;
62121;SDS011;48108;47.532;19.084;2023-03-02T13:11:59;5.62;;;4.15;;
62121;SDS011;48108;47.532;19.084;2023-03-02T13:15:02;9.27;;;4.37;;
62121;SDS011;48108;47.532;19.084;2023-03-02T13:18:17;8.15;;;4.55;;
62121;SDS011;48108;47.532;19.084;2023-03-02T13:21:23;7.45;;;4.87;;
62121;SDS011;48108;47.532;19.084;2023-03-02T13:27:53;8.65;;;4.93;;
62121;SDS011;48108;47.532;19.084;2023-03-02T13:30:58;8.45;;;4.90;;
62121;SDS011;48108;47.532;19.084;2023-03-02T13:34:17;6.20;;;4.80;;
62121;SDS011;48108;47.532;19.084;2023-03-02T13:37:36;8.40;;;5.03;;
62121;SDS011;48108;47.532;19.084;2023-03-02T13:40:50;8.27;;;5.12;;
62121;SDS011;48108;47.532;19.084;2023-03-02T13:43:54;8.33;;;5.50;;
62121;SDS011;48108;47.532;19.084;2023-03-02T13:46:58;7.50;;;5.37;;
62121;SDS011;48108;47.532;19.084;2023-03-02T13:50:05;9.00;;;5.28;;
62121;SDS011;48108;47.532;19.084;2023-03-02T13:53:13;8.63;;;5.40;;
62121;SDS011;48108;47.532;19.084;2023-03-02T13:56:16;10.57;;;5.68;;
62121;SDS011;48108;47.532;19.084;2023-03-02T13:59:21;9.88;;;5.25;;
62121;SDS011;48108;47.532;19.084;2023-03-02T14:02:25;10.60;;;5.87;;
62121;SDS011;48108;47.532;19.084;2023-03-02T14:05:29;11.10;;;5.40;;
62121;SDS011;48108;47.532;19.084;2023-03-02T14:08:34;10.95;;;5.70;;
62121;SDS011;48108;47.532;19.084;2023-03-02T14:11:41;7.60;;;4.93;;
62121;SDS011;48108;47.532;19.084;2023-03-02T14:14:46;8.45;;;5.28;;
62121;SDS011;48108;47.532;19.084;2023-03-02T14:17:50;7.43;;;5.22;;
62121;SDS011;48108;47.532;19.084;2023-03-02T14:20:54;10.23;;;4.95;;
62121;SDS011;48108;47.532;19.084;2023-03-02T14:23:58;7.25;;;4.80;;
62121;SDS011;48108;47.532;19.084;2023-03-02T14:27:01;7.37;;;4.68;;
62121;SDS011;48108;47.532;19.084;2023-03-02T14:30:12;8.32;;;4.80;;
62121;SDS011;48108;47.532;19.084;2023-03-02T14:33:20;7.82;;;4.90;;
62121;SDS011;48108;47.532;19.084;2023-03-02T14:36:31;7.72;;;4.20;;
62121;SDS011;48108;47.532;19.084;2023-03-02T14:39:39;8.93;;;4.47;;
62121;SDS011;48108;47.532;19.084;2023-03-02T14:42:44;9.30;;;4.18;;
62121;SDS011;48108;47.532;19.084;2023-03-02T14:45:47;9.93;;;4.37;;
62121;SDS011;48108;47.532;19.084;2023-03-02T14:48:50;8.18;;;4.20;;
62121;SDS011;48108;47.532;19.084;2023-03-02T14:55:29;8.27;;;4.05;;
62121;SDS011;48108;47.532;19.084;2023-03-02T14:58:33;5.12;;;3.78;;
62121;SDS011;48108;47.532;19.084;2023-03-02T15:01:36;8.90;;;4.18;;
62121;SDS011;48108;47.532;19.084;2023-03-02T15:04:40;6.72;;;4.07;;
62121;SDS011;48108;47.532;19.084;2023-03-02T15:07:44;6.62;;;4.28;;
62121;SDS011;48108;47.532;19.084;2023-03-02T15:10:48;8.95;;;4.20;;
62121;SDS011;48108;47.532;19.084;2023-03-02T15:13:52;4.72;;;3.58;;
62121;SDS011;48108;47.532;19.084;2023-03-02T15:16:55;7.72;;;4.25;;
62121;SDS011;48108;47.532;19.084;2023-03-02T15:19:58;7.60;;;4.35;;
62121;SDS011;48108;47.532;19.084;2023-03-02T15:23:04;9.68;;;4.85;;
62121;SDS011;48108;47.532;19.084;2023-03-02T15:26:10;8.52;;;4.20;;
62121;SDS011;48108;47.532;19.084;2023-03-02T15:29:17;8.93;;;4.27;;
62121;SDS011;48108;47.532;19.084;2023-03-02T15:32:23;7.95;;;4.18;;
62121;SDS011;48108;47.532;19.084;2023-03-02T15:35:26;6.55;;;4.47;;
62121;SDS011;48108;47.532;19.084;2023-03-02T15:38:32;6.90;;;4.50;;
62121;SDS011;48108;47.532;19.084;2023-03-02T15:41:37;11.02;;;4.68;;
62121;SDS011;48108;47.532;19.084;2023-03-02T15:44:40;6.60;;;4.45;;
62121;SDS011;48108;47.532;19.084;2023-03-02T15:47:43;6.75;;;4.35;;
62121;SDS011;48108;47.532;19.084;2023-03-02T15:51:01;7.10;;;4.45;;
62121;SDS011;48108;47.532;19.084;2023-03-02T15:54:05;6.87;;;4.28;;
62121;SDS011;48108;47.532;19.084;2023-03-02T15:57:08;13.98;;;4.32;;
62121;SDS011;48108;47.532;19.084;2023-03-02T16:00:11;7.12;;;4.07;;
62121;SDS011;48108;47.532;19.084;2023-03-02T16:03:15;7.85;;;4.15;;
62121;SDS011;48108;47.532;19.084;2023-03-02T16:06:18;7.60;;;4.20;;
62121;SDS011;48108;47.532;19.084;2023-03-02T16:09:24;7.70;;;4.28;;
62121;SDS011;48108;47.532;19.084;2023-03-02T16:12:30;6.28;;;3.67;;
62121;SDS011;48108;47.532;19.084;2023-03-02T16:15:37;6.30;;;4.22;;
62121;SDS011;48108;47.532;19.084;2023-03-02T16:18:47;8.63;;;4.30;;
62121;SDS011;48108;47.532;19.084;2023-03-02T16:21:58;6.55;;;4.45;;
62121;SDS011;48108;47.532;19.084;2023-03-02T16:25:00;8.30;;;4.35;;
62121;SDS011;48108;47.532;19.084;2023-03-02T16:28:04;7.20;;;4.30;;
62121;SDS011;48108;47.532;19.084;2023-03-02T16:31:13;9.15;;;4.80;;
62121;SDS011;48108;47.532;19.084;2023-03-02T16:34:19;7.40;;;4.03;;
62121;SDS011;48108;47.532;19.084;2023-03-02T16:37:22;8.80;;;4.87;;
62121;SDS011;48108;47.532;19.084;2023-03-02T16:40:26;10.45;;;4.80;;
62121;SDS011;48108;47.532;19.084;2023-03-02T16:43:30;9.73;;;5.18;;
62121;SDS011;48108;47.532;19.084;2023-03-02T16:46:33;9.68;;;4.65;;
62121;SDS011;48108;47.532;19.084;2023-03-02T16:49:38;8.55;;;5.07;;
62121;SDS011;48108;47.532;19.084;2023-03-02T16:52:41;7.55;;;4.90;;
62121;SDS011;48108;47.532;19.084;2023-03-02T16:55:44;10.70;;;4.95;;
62121;SDS011;48108;47.532;19.084;2023-03-02T16:58:47;9.23;;;4.78;;
62121;SDS011;48108;47.532;19.084;2023-03-02T17:01:50;10.05;;;5.35;;
